Time;durP1;ratioP1;P1;durP2;ratioP2;P2;SDS_P1;SDS_P2;PMS_P1;PMS_P2;Temp;Humidity;BMP_temperature;BMP_pressure;BME280_temperature;BME280_humidity;BME280_pressure;Samples;Min_cycle;Max_cycle;Signal;HPM_P1;HPM_P2
2021/10/25 00:00:09;;;;;;;2.27;1.57;;;;;;;;;;4503934;28;20041;-61
2021/10/25 00:02:23;;;;;;;1.33;1.15;;;;;;;;;;4538163;28;20025;-61
2021/10/25 00:04:34;;;;;;;1.80;1.50;;;;;;;;;;4537987;28;20050;-61
2021/10/25 00:06:44;;;;;;;1.30;1.10;;;;;;;;;;4537684;28;20036;-61
2021/10/25 00:08:54;;;;;;;1.40;1.20;;;;;;;;;;4538602;28;20385;-62
2021/10/25 00:11:05;;;;;;;2.57;1.40;;;;;;;;;;4519991;28;20162;-62
2021/10/25 00:13:15;;;;;;;1.47;1.20;;;;;;;;;;4538661;28;20429;-61
2021/10/25 00:15:27;;;;;;;1.90;1.47;;;;;;;;;;4538491;28;20029;-61
2021/10/25 00:17:37;;;;;;;2.22;1.30;;;;;;;;;;4538715;28;20137;-61
2021/10/25 00:19:48;;;;;;;1.57;1.20;;;;;;;;;;4539150;28;20043;-61
2021/10/25 00:21:58;;;;;;;1.53;1.37;;;;;;;;;;4520547;28;27529;-61
2021/10/25 00:24:11;;;;;;;1.90;1.33;;;;;;;;;;4520497;28;20042;-61
2021/10/25 00:26:21;;;;;;;2.22;1.17;;;;;;;;;;4520720;28;20974;-61
2021/10/25 00:28:32;;;;;;;2.20;1.37;;;;;;;;;;4538566;28;20036;-62
2021/10/25 00:30:42;;;;;;;2.53;1.57;;;;;;;;;;4520554;28;20645;-61
2021/10/25 00:32:53;;;;;;;1.57;1.10;;;;;;;;;;4538515;28;20025;-61
2021/10/25 00:35:04;;;;;;;1.57;1.20;;;;;;;;;;4537850;28;20021;-62
2021/10/25 00:37:15;;;;;;;2.30;1.30;;;;;;;;;;4520408;28;20026;-61
2021/10/25 00:39:25;;;;;;;1.50;1.20;;;;;;;;;;4520512;28;20018;-61
2021/10/25 00:41:36;;;;;;;1.77;1.20;;;;;;;;;;4521626;28;20030;-61
2021/10/25 00:43:46;;;;;;;1.60;1.30;;;;;;;;;;4520174;28;20029;-61
2021/10/25 00:45:57;;;;;;;1.43;1.30;;;;;;;;;;4503928;28;20030;-61
2021/10/25 00:48:07;;;;;;;1.53;1.30;;;;;;;;;;4538111;28;20136;-62
2021/10/25 00:50:18;;;;;;;1.37;1.20;;;;;;;;;;4500000;28;20034;-61
2021/10/25 00:52:29;;;;;;;1.33;1.23;;;;;;;;;;4521030;28;20487;-61
2021/10/25 00:54:40;;;;;;;1.42;1.10;;;;;;;;;;4521320;28;20133;-61
2021/10/25 00:56:51;;;;;;;;;;;;;;;;;;4521622;28;20080;-61
2021/10/25 00:59:01;;;;;;;2.10;1.20;;;;;;;;;;4538776;28;19963;-61
2021/10/25 01:01:12;;;;;;;1.87;1.40;;;;;;;;;;4520512;28;20498;-61
2021/10/25 01:03:23;;;;;;;1.65;1.20;;;;;;;;;;4536217;28;20033;-61
2021/10/25 01:05:34;;;;;;;1.85;1.48;;;;;;;;;;4503585;28;20681;-61
2021/10/25 01:07:44;;;;;;;2.27;1.43;;;;;;;;;;4536756;28;21174;-61
2021/10/25 01:09:57;;;;;;;1.50;1.30;;;;;;;;;;4537676;28;20029;-61
2021/10/25 01:12:07;;;;;;;1.83;1.30;;;;;;;;;;4536983;28;20162;-61
2021/10/25 01:14:18;;;;;;;1.83;1.13;;;;;;;;;;4502041;28;20042;-61
2021/10/25 01:16:29;;;;;;;1.60;1.30;;;;;;;;;;4512194;28;20040;-61
2021/10/25 01:18:39;;;;;;;2.03;1.30;;;;;;;;;;4538474;28;20040;-61
2021/10/25 01:20:50;;;;;;;1.38;1.10;;;;;;;;;;4520416;28;20041;-61
2021/10/25 01:23:07;;;;;;;1.42;1.30;;;;;;;;;;4536726;28;20083;-61
2021/10/25 01:25:18;;;;;;;2.13;1.33;;;;;;;;;;4535838;28;20045;-61
2021/10/25 01:27:29;;;;;;;2.13;1.30;;;;;;;;;;4519043;28;20033;-61
2021/10/25 01:29:41;;;;;;;2.03;1.40;;;;;;;;;;4503519;28;20059;-61
2021/10/25 01:31:54;;;;;;;2.17;1.38;;;;;;;;;;4537236;28;20102;-61
2021/10/25 01:34:06;;;;;;;1.70;1.15;;;;;;;;;;4503675;28;20199;-61
2021/10/25 01:36:19;;;;;;;2.35;1.20;;;;;;;;;;4519542;28;20713;-61
2021/10/25 01:38:30;;;;;;;2.45;1.40;;;;;;;;;;4519596;28;20029;-61
2021/10/25 01:40:41;;;;;;;2.22;1.35;;;;;;;;;;4535607;28;20623;-61
2021/10/25 01:42:52;;;;;;;1.60;1.30;;;;;;;;;;4519927;28;20116;-61
2021/10/25 01:45:04;;;;;;;1.67;1.33;;;;;;;;;;4538411;28;20032;-61
2021/10/25 01:47:15;;;;;;;1.65;1.20;;;;;;;;;;4535348;28;20210;-61
2021/10/25 01:49:26;;;;;;;1.30;1.10;;;;;;;;;;4513425;28;20125;-61
2021/10/25 01:51:36;;;;;;;2.03;1.40;;;;;;;;;;4518466;28;20571;-61
2021/10/25 01:53:47;;;;;;;1.83;1.30;;;;;;;;;;4517921;28;20073;-61
2021/10/25 01:56:00;;;;;;;1.60;1.30;;;;;;;;;;4536813;28;20102;-61
2021/10/25 01:58:14;;;;;;;1.73;1.20;;;;;;;;;;4515756;28;20557;-61
2021/10/25 02:00:25;;;;;;;2.53;1.30;;;;;;;;;;4537701;28;20120;-61
2021/10/25 02:02:35;;;;;;;1.90;1.20;;;;;;;;;;4535744;28;20033;-61
2021/10/25 02:04:46;;;;;;;1.67;1.37;;;;;;;;;;4519693;28;20041;-61
2021/10/25 02:06:57;;;;;;;2.08;1.35;;;;;;;;;;4519202;28;20057;-61
2021/10/25 02:09:10;;;;;;;1.92;1.35;;;;;;;;;;4519749;28;20037;-61
2021/10/25 02:11:21;;;;;;;3.20;1.40;;;;;;;;;;4536315;28;20037;-61
2021/10/25 02:13:41;;;;;;;1.50;1.35;;;;;;;;;;4513144;28;20621;-61
2021/10/25 02:15:53;;;;;;;;;;;;;;;;;;4535824;28;20609;-61
2021/10/25 02:18:05;;;;;;;2.60;1.50;;;;;;;;;;4517145;28;19975;-61
2021/10/25 02:20:16;;;;;;;3.10;1.50;;;;;;;;;;4537479;28;20397;-61
2021/10/25 02:22:26;;;;;;;1.50;1.20;;;;;;;;;;4517428;28;20405;-61
2021/10/25 02:24:36;;;;;;;2.63;1.47;;;;;;;;;;4518410;28;20049;-61
2021/10/25 02:26:48;;;;;;;2.53;1.60;;;;;;;;;;4519391;28;20037;-61
2021/10/25 02:28:59;;;;;;;2.85;1.50;;;;;;;;;;4523083;28;20099;-61
2021/10/25 02:31:11;;;;;;;;;;;;;;;;;;4519773;28;20129;-61
2021/10/25 02:33:24;;;;;;;1.50;1.27;;;;;;;;;;4518647;28;19984;-61
2021/10/25 02:35:34;;;;;;;1.57;1.43;;;;;;;;;;4537166;28;20041;-61
2021/10/25 02:37:45;;;;;;;2.37;1.30;;;;;;;;;;4517128;28;20069;-61
2021/10/25 02:39:55;;;;;;;2.03;1.40;;;;;;;;;;4500172;28;20037;-61
2021/10/25 02:42:06;;;;;;;2.37;1.53;;;;;;;;;;4519382;28;20448;-61
2021/10/25 02:44:16;;;;;;;2.00;1.40;;;;;;;;;;4518822;28;20052;-62
2021/10/25 02:46:27;;;;;;;1.58;1.10;;;;;;;;;;4536164;28;20553;-61
2021/10/25 02:48:39;;;;;;;1.90;1.60;;;;;;;;;;4535405;28;20049;-61
2021/10/25 02:50:50;;;;;;;2.22;1.20;;;;;;;;;;4536469;28;20058;-61
2021/10/25 02:53:01;;;;;;;1.35;1.10;;;;;;;;;;4518775;28;20026;-61
2021/10/25 02:55:11;;;;;;;2.27;1.20;;;;;;;;;;4501489;28;20506;-61
2021/10/25 02:57:22;;;;;;;1.87;1.30;;;;;;;;;;4518528;28;20476;-61
2021/10/25 02:59:32;;;;;;;1.57;1.23;;;;;;;;;;4536431;28;20037;-61
2021/10/25 03:01:45;;;;;;;1.67;1.20;;;;;;;;;;4522453;28;20056;-61
2021/10/25 03:03:56;;;;;;;1.60;1.30;;;;;;;;;;4515163;28;20030;-61
2021/10/25 03:06:09;;;;;;;1.38;1.00;;;;;;;;;;4522294;28;20046;-61
2021/10/25 03:08:20;;;;;;;2.97;1.30;;;;;;;;;;4540000;28;20557;-61
2021/10/25 03:10:30;;;;;;;2.67;1.43;;;;;;;;;;4523306;28;20038;-61
2021/10/25 03:12:41;;;;;;;1.70;1.30;;;;;;;;;;4521739;28;20037;-61
2021/10/25 03:14:53;;;;;;;2.00;1.33;;;;;;;;;;4539156;28;20057;-61
2021/10/25 03:17:03;;;;;;;1.45;1.20;;;;;;;;;;4505647;28;20042;-61
2021/10/25 03:19:17;;;;;;;1.90;1.20;;;;;;;;;;4521851;28;20132;-61
2021/10/25 03:21:28;;;;;;;2.30;1.40;;;;;;;;;;4521807;28;20029;-61
2021/10/25 03:23:41;;;;;;;1.67;1.42;;;;;;;;;;4489290;28;20034;-61
2021/10/25 03:25:51;;;;;;;1.38;1.10;;;;;;;;;;4522062;28;20046;-61
2021/10/25 03:28:02;;;;;;;2.27;1.30;;;;;;;;;;4505550;28;20034;-61
2021/10/25 03:30:15;;;;;;;2.33;1.52;;;;;;;;;;4499787;28;20038;-62
2021/10/25 03:32:29;;;;;;;1.63;1.00;;;;;;;;;;4538432;28;20159;-61
2021/10/25 03:34:57;;;;;;;1.38;1.10;;;;;;;;;;4521494;28;20642;-61
2021/10/25 03:37:08;;;;;;;1.50;1.13;;;;;;;;;;4515236;28;20037;-61
2021/10/25 03:39:21;;;;;;;1.47;1.20;;;;;;;;;;4539205;28;20500;-61
2021/10/25 03:41:38;;;;;;;1.60;1.10;;;;;;;;;;4537999;28;20072;-61
2021/10/25 03:43:54;;;;;;;1.38;1.20;;;;;;;;;;4521238;28;20033;-61
2021/10/25 03:46:18;;;;;;;1.67;1.27;;;;;;;;;;4535452;28;20033;-62
2021/10/25 03:51:08;;;;;;;1.63;1.30;;;;;;;;;;4496412;28;21054;-61
2021/10/25 04:03:18;;;;;;;1.50;1.10;;;;;;;;;;4523721;28;20032;-61
2021/10/25 04:25:53;;;;;;;1.33;1.20;;;;;;;;;;4537521;28;20152;-61
2021/10/25 04:30:18;;;;;;;1.77;0.98;;;;;;;;;;4537208;28;20662;-61
2021/10/25 04:32:29;;;;;;;1.45;1.08;;;;;;;;;;4537133;28;20071;-61
2021/10/25 04:34:42;;;;;;;1.52;1.20;;;;;;;;;;4514144;28;20982;-61
2021/10/25 04:37:13;;;;;;;1.42;1.10;;;;;;;;;;4523379;28;20124;-61
2021/10/25 04:39:28;;;;;;;0.90;0.90;;;;;;;;;;4537493;28;20029;-61
2021/10/25 04:41:41;;;;;;;1.75;1.20;;;;;;;;;;4510029;28;20981;-61
2021/10/25 04:43:52;;;;;;;2.60;1.30;;;;;;;;;;4536734;28;20029;-61
2021/10/25 04:46:03;;;;;;;1.60;1.10;;;;;;;;;;4539146;28;20028;-61
2021/10/25 04:48:14;;;;;;;1.40;1.30;;;;;;;;;;4538106;28;20029;-61
2021/10/25 04:50:43;;;;;;;1.67;1.25;;;;;;;;;;4506095;28;20041;-61
2021/10/25 04:53:08;;;;;;;2.22;1.40;;;;;;;;;;4519424;28;20037;-61
2021/10/25 04:55:20;;;;;;;1.77;1.27;;;;;;;;;;4513219;28;20498;-62
2021/10/25 04:57:31;;;;;;;1.58;1.48;;;;;;;;;;4538466;28;20816;-61
2021/10/25 04:59:41;;;;;;;1.43;1.27;;;;;;;;;;4539337;28;20041;-61
2021/10/25 05:01:52;;;;;;;1.43;1.20;;;;;;;;;;4538217;28;20040;-61
2021/10/25 05:04:02;;;;;;;1.80;1.30;;;;;;;;;;4519788;28;20381;-61
2021/10/25 05:06:17;;;;;;;1.40;1.20;;;;;;;;;;4536461;28;20041;-61
2021/10/25 05:08:29;;;;;;;1.73;1.17;;;;;;;;;;4537724;28;20033;-61
2021/10/25 05:10:40;;;;;;;1.43;1.30;;;;;;;;;;4520620;28;20037;-62
2021/10/25 05:12:51;;;;;;;1.52;1.10;;;;;;;;;;4503014;28;20038;-61
2021/10/25 05:15:02;;;;;;;1.67;1.20;;;;;;;;;;4518828;28;20417;-61
2021/10/25 05:17:13;;;;;;;1.37;1.13;;;;;;;;;;4497395;28;20042;-60
2021/10/25 05:19:27;;;;;;;1.85;1.20;;;;;;;;;;4504301;28;20316;-61
2021/10/25 05:21:48;;;;;;;1.20;1.10;;;;;;;;;;4536856;28;20033;-61
2021/10/25 05:23:59;;;;;;;2.37;1.30;;;;;;;;;;4517240;28;20036;-61
2021/10/25 05:26:10;;;;;;;2.10;1.37;;;;;;;;;;4519692;28;20069;-61
2021/10/25 05:28:20;;;;;;;;;;;;;;;;;;4538070;28;20840;-61
2021/10/25 05:30:31;;;;;;;1.65;1.25;;;;;;;;;;4536793;28;20003;-61
2021/10/25 05:32:42;;;;;;;1.83;1.07;;;;;;;;;;4495743;28;20545;-61
2021/10/25 05:34:52;;;;;;;1.97;1.20;;;;;;;;;;4538214;28;20457;-61
2021/10/25 05:37:03;;;;;;;1.67;1.30;;;;;;;;;;4509646;28;20034;-61
2021/10/25 05:39:15;;;;;;;1.25;1.10;;;;;;;;;;4519984;28;20088;-61
2021/10/25 05:41:27;;;;;;;1.37;1.27;;;;;;;;;;4519457;28;20513;-61
2021/10/25 05:43:37;;;;;;;1.92;1.33;;;;;;;;;;4519707;28;20088;-61
2021/10/25 05:45:48;;;;;;;1.83;1.30;;;;;;;;;;4503254;28;20105;-61
2021/10/25 05:47:59;;;;;;;1.43;1.20;;;;;;;;;;4535789;28;20057;-61
2021/10/25 05:50:09;;;;;;;1.40;1.30;;;;;;;;;;4518965;28;20544;-61
2021/10/25 05:52:19;;;;;;;1.60;1.30;;;;;;;;;;4519383;28;20446;-61
2021/10/25 05:54:31;;;;;;;3.23;1.53;;;;;;;;;;4519632;28;20087;-61
2021/10/25 05:56:49;;;;;;;2.15;1.38;;;;;;;;;;4517733;28;20053;-61
2021/10/25 05:59:00;;;;;;;2.47;1.37;;;;;;;;;;4535397;28;20037;-61
2021/10/25 06:01:13;;;;;;;;;;;;;;;;;;4503426;28;22333;-60
2021/10/25 06:03:42;;;;;;;2.45;1.30;;;;;;;;;;4517571;28;19917;-61
2021/10/25 06:05:55;;;;;;;1.23;1.13;;;;;;;;;;4501843;28;20717;-60
2021/10/25 06:08:06;;;;;;;2.80;1.55;;;;;;;;;;4537769;28;20035;-60
2021/10/25 06:10:27;;;;;;;1.60;1.30;;;;;;;;;;4518616;28;20091;-60
2021/10/25 06:12:41;;;;;;;1.40;1.30;;;;;;;;;;4519933;28;20041;-60
2021/10/25 06:15:05;;;;;;;;;;;;;;;;;;4534130;28;20892;-60
2021/10/25 06:19:48;;;;;;;1.42;1.10;;;;;;;;;;4535320;28;20037;-60
2021/10/25 06:21:59;;;;;;;2.15;1.40;;;;;;;;;;4534805;28;20033;-60
2021/10/25 06:24:15;;;;;;;2.45;1.50;;;;;;;;;;4518759;28;21188;-60
2021/10/25 06:26:48;;;;;;;1.73;1.40;;;;;;;;;;4534613;28;20634;-60
2021/10/25 06:28:58;;;;;;;1.90;1.33;;;;;;;;;;4535408;28;20056;-61
2021/10/25 06:31:09;;;;;;;2.37;1.30;;;;;;;;;;4516760;28;20632;-61
2021/10/25 06:33:44;;;;;;;1.38;1.13;;;;;;;;;;4534997;28;20037;-60
2021/10/25 06:36:13;;;;;;;2.55;1.60;;;;;;;;;;4536557;28;20071;-61
2021/10/25 06:41:13;;;;;;;;;;;;;;;;;;4514909;28;20103;-61
2021/10/25 06:43:24;;;;;;;2.92;1.70;;;;;;;;;;4520550;28;20015;-62
2021/10/25 06:45:37;;;;;;;2.88;1.50;;;;;;;;;;4520159;28;20144;-61
2021/10/25 06:47:49;;;;;;;2.13;1.50;;;;;;;;;;4518234;28;20108;-62
2021/10/25 06:49:59;;;;;;;2.38;1.70;;;;;;;;;;4537779;28;20025;-62
2021/10/25 06:52:10;;;;;;;2.57;1.57;;;;;;;;;;4535591;28;20041;-61
2021/10/25 06:54:21;;;;;;;1.50;1.30;;;;;;;;;;4503139;28;20554;-59
2021/10/25 06:56:33;;;;;;;3.20;1.70;;;;;;;;;;4537077;28;20029;-60
2021/10/25 06:58:44;;;;;;;2.80;1.50;;;;;;;;;;4519734;28;20169;-59
2021/10/25 07:00:58;;;;;;;2.10;1.60;;;;;;;;;;4538274;28;20039;-59
2021/10/25 07:03:11;;;;;;;3.20;1.45;;;;;;;;;;4502865;28;20029;-59
2021/10/25 07:05:21;;;;;;;1.73;1.40;;;;;;;;;;4537723;28;20041;-60
2021/10/25 07:07:32;;;;;;;2.37;1.47;;;;;;;;;;4538065;28;20837;-60
2021/10/25 07:09:43;;;;;;;1.30;1.20;;;;;;;;;;4519711;28;20025;-60
2021/10/25 07:11:54;;;;;;;2.33;1.52;;;;;;;;;;4536982;28;20558;-59
2021/10/25 07:14:06;;;;;;;1.53;1.37;;;;;;;;;;4538598;28;20040;-59
2021/10/25 07:16:21;;;;;;;2.15;1.38;;;;;;;;;;4520318;28;20976;-60
2021/10/25 08:08:34;;;;;;;4.70;2.20;;;;;;;;;;4454022;28;20039;-61
2021/10/25 08:10:52;;;;;;;3.28;2.13;;;;;;;;;;4469121;28;20094;-61
2021/10/25 08:13:10;;;;;;;2.97;2.10;;;;;;;;;;4504813;28;20038;-61
2021/10/25 08:15:34;;;;;;;2.97;1.90;;;;;;;;;;4515708;28;20116;-61
2021/10/25 08:17:49;;;;;;;2.67;1.70;;;;;;;;;;4536726;28;20033;-60
2021/10/25 08:20:00;;;;;;;2.20;1.70;;;;;;;;;;4522943;28;20619;-60
2021/10/25 08:22:15;;;;;;;2.93;1.70;;;;;;;;;;4517519;28;20029;-62
2021/10/25 08:24:27;;;;;;;2.47;1.30;;;;;;;;;;4535856;28;20184;-61
2021/10/25 08:26:59;;;;;;;2.33;1.65;;;;;;;;;;4505721;28;20629;-61
2021/10/25 08:29:09;;;;;;;2.27;1.33;;;;;;;;;;4519597;28;20026;-61
2021/10/25 08:31:22;;;;;;;2.67;1.47;;;;;;;;;;4518365;28;20562;-61
2021/10/25 08:36:08;;;;;;;2.92;1.30;;;;;;;;;;4518171;28;20032;-61
2021/10/25 08:40:51;;;;;;;2.92;1.50;;;;;;;;;;4517650;28;20587;-61
2021/10/25 08:43:02;;;;;;;2.97;1.60;;;;;;;;;;4534732;28;20021;-61
2021/10/25 08:45:18;;;;;;;2.07;1.23;;;;;;;;;;4517236;28;20042;-61
2021/10/25 08:47:33;;;;;;;2.20;1.48;;;;;;;;;;4535748;28;20984;-61
2021/10/25 08:49:44;;;;;;;3.25;1.85;;;;;;;;;;4535145;28;20603;-61
2021/10/25 08:51:54;;;;;;;2.33;1.47;;;;;;;;;;4530018;28;20156;-61
2021/10/25 08:54:11;;;;;;;3.00;1.40;;;;;;;;;;4513695;28;20368;-61
2021/10/25 08:56:21;;;;;;;2.03;1.20;;;;;;;;;;4533911;28;20105;-61
2021/10/25 08:59:04;;;;;;;1.90;1.30;;;;;;;;;;4511773;28;20086;-61
2021/10/25 09:01:23;;;;;;;2.05;1.35;;;;;;;;;;4534565;28;20073;-61
2021/10/25 09:04:08;;;;;;;2.78;1.55;;;;;;;;;;4519865;28;20071;-61
2021/10/25 09:06:20;;;;;;;2.45;1.35;;;;;;;;;;4534702;28;20045;-61
2021/10/25 09:08:33;;;;;;;2.13;1.35;;;;;;;;;;4535410;28;20516;-62
2021/10/25 09:10:45;;;;;;;;;;;;;;;;;;4535147;28;20030;-61
2021/10/25 09:12:58;;;;;;;1.88;1.40;;;;;;;;;;4517771;28;20760;-62
2021/10/25 09:15:09;;;;;;;2.15;1.40;;;;;;;;;;4501638;28;20030;-60
2021/10/25 09:17:27;;;;;;;2.13;1.30;;;;;;;;;;4513651;28;20026;-61
2021/10/25 09:19:45;;;;;;;2.08;1.10;;;;;;;;;;4511715;28;20029;-61
2021/10/25 09:22:15;;;;;;;2.13;0.80;;;;;;;;;;4535580;28;20672;-61
2021/10/25 09:24:26;;;;;;;1.10;0.70;;;;;;;;;;4533364;28;20120;-61
2021/10/25 09:26:39;;;;;;;1.20;0.77;;;;;;;;;;4533894;28;20557;-62
2021/10/25 09:29:03;;;;;;;0.85;0.70;;;;;;;;;;4523362;28;20192;-61
2021/10/25 09:31:32;;;;;;;2.17;0.80;;;;;;;;;;4517864;28;20025;-61
2021/10/25 09:34:14;;;;;;;1.65;0.80;;;;;;;;;;4533644;28;20021;-61
2021/10/25 09:36:52;;;;;;;2.55;1.17;;;;;;;;;;4534720;28;20115;-60
2021/10/25 09:39:16;;;;;;;2.15;1.10;;;;;;;;;;4513209;28;20615;-61
2021/10/25 09:49:08;;;;;;;1.02;0.70;;;;;;;;;;4534669;28;20049;-63
2021/10/25 09:51:19;;;;;;;1.60;0.90;;;;;;;;;;4517746;28;20025;-61
2021/10/25 09:53:39;;;;;;;0.90;0.70;;;;;;;;;;4500109;28;20021;-61
2021/10/25 09:55:50;;;;;;;1.27;0.70;;;;;;;;;;4516035;28;20049;-61
2021/10/25 09:58:15;;;;;;;1.00;0.80;;;;;;;;;;4510601;28;20033;-61
2021/10/25 10:00:30;;;;;;;1.63;0.93;;;;;;;;;;4533240;28;20248;-61
2021/10/25 10:02:42;;;;;;;1.15;0.82;;;;;;;;;;4532834;28;20136;-61
2021/10/25 10:04:58;;;;;;;2.47;1.17;;;;;;;;;;4516679;28;20512;-61
2021/10/25 10:07:18;;;;;;;1.25;0.80;;;;;;;;;;4533886;28;20065;-61
2021/10/25 10:09:36;;;;;;;0.80;0.77;;;;;;;;;;4516794;28;20013;-61
2021/10/25 10:11:47;;;;;;;1.73;0.95;;;;;;;;;;4535194;28;20029;-61
2021/10/25 10:14:00;;;;;;;1.02;0.80;;;;;;;;;;4517109;28;20706;-60
2021/10/25 10:16:24;;;;;;;1.05;0.65;;;;;;;;;;4517536;28;20081;-60
2021/10/25 10:18:37;;;;;;;2.20;1.10;;;;;;;;;;4533203;28;20175;-60
2021/10/25 10:21:20;;;;;;;1.65;0.95;;;;;;;;;;4509925;28;20040;-60
2021/10/25 10:23:31;;;;;;;1.08;0.77;;;;;;;;;;4533751;28;20088;-60
2021/10/25 10:26:00;;;;;;;1.02;0.90;;;;;;;;;;4517501;28;20640;-60
2021/10/25 10:28:13;;;;;;;1.10;0.95;;;;;;;;;;4517227;28;20022;-60
2021/10/25 10:30:24;;;;;;;0.77;0.75;;;;;;;;;;4500027;28;20057;-60
2021/10/25 10:32:57;;;;;;;1.17;0.82;;;;;;;;;;4515569;28;20120;-60
2021/10/25 10:35:16;;;;;;;1.92;1.10;;;;;;;;;;4533687;28;20017;-60
2021/10/25 10:38:01;;;;;;;1.15;0.80;;;;;;;;;;4529232;28;20136;-60
2021/10/25 10:40:18;;;;;;;1.10;0.88;;;;;;;;;;4501314;28;20041;-60
2021/10/25 10:42:52;;;;;;;0.98;0.82;;;;;;;;;;4519509;28;20112;-60
2021/10/25 10:45:07;;;;;;;1.80;0.77;;;;;;;;;;4517464;28;20042;-60
2021/10/25 10:47:23;;;;;;;1.25;0.90;;;;;;;;;;4516186;28;20026;-61
2021/10/25 10:49:48;;;;;;;1.33;0.90;;;;;;;;;;4532822;28;20025;-61
2021/10/25 10:52:27;;;;;;;1.67;0.77;;;;;;;;;;4534283;28;20064;-61
2021/10/25 10:54:44;;;;;;;1.10;0.90;;;;;;;;;;4517102;28;20117;-60
2021/10/25 10:57:06;;;;;;;1.55;0.77;;;;;;;;;;4533891;28;20025;-61
2021/10/25 10:59:50;;;;;;;1.10;0.90;;;;;;;;;;4535322;28;20678;-61
2021/10/25 11:01:57;;;;;;;1.73;1.00;;;;;;;;;;4530610;28;20088;-60
2021/10/25 11:04:08;;;;;;;2.13;0.90;;;;;;;;;;4534071;28;20093;-61
2021/10/25 11:06:19;;;;;;;1.15;0.90;;;;;;;;;;4516244;28;20038;-61
2021/10/25 11:08:57;;;;;;;2.30;1.15;;;;;;;;;;4534241;28;20025;-61
2021/10/25 11:11:21;;;;;;;1.60;0.95;;;;;;;;;;4510723;28;20038;-61
2021/10/25 11:13:42;;;;;;;1.98;1.10;;;;;;;;;;4533409;28;20132;-61
2021/10/25 11:18:30;;;;;;;0.82;0.68;;;;;;;;;;4517171;28;20084;-61
2021/10/25 11:20:41;;;;;;;1.20;0.75;;;;;;;;;;4517193;28;20841;-61
2021/10/25 11:22:51;;;;;;;1.30;0.90;;;;;;;;;;4518919;28;20056;-61
2021/10/25 11:25:05;;;;;;;0.80;0.70;;;;;;;;;;4535901;28;20519;-61
2021/10/25 11:27:23;;;;;;;1.13;1.00;;;;;;;;;;4519192;28;20057;-60
2021/10/25 11:29:36;;;;;;;1.30;0.90;;;;;;;;;;4538355;28;20137;-61
2021/10/25 11:31:49;;;;;;;1.63;1.00;;;;;;;;;;4520013;28;20033;-61
2021/10/25 11:34:00;;;;;;;1.13;0.80;;;;;;;;;;4537779;28;20524;-61
2021/10/25 11:36:11;;;;;;;2.20;1.02;;;;;;;;;;4538231;28;20580;-61
2021/10/25 11:38:22;;;;;;;1.20;0.95;;;;;;;;;;4520765;28;20030;-61
2021/10/25 11:40:32;;;;;;;1.37;0.90;;;;;;;;;;4537337;28;20104;-61
2021/10/25 11:42:45;;;;;;;1.10;0.90;;;;;;;;;;4537311;28;20021;-61
2021/10/25 11:45:08;;;;;;;1.25;0.80;;;;;;;;;;4536576;28;20049;-61
2021/10/25 11:47:21;;;;;;;1.42;1.20;;;;;;;;;;4537449;28;20033;-61
2021/10/25 11:49:36;;;;;;;1.48;1.00;;;;;;;;;;4536664;28;20092;-61
2021/10/25 11:51:49;;;;;;;1.48;1.10;;;;;;;;;;4518886;28;20895;-61
2021/10/25 11:54:00;;;;;;;1.63;0.90;;;;;;;;;;4520004;28;20573;-61
2021/10/25 11:56:14;;;;;;;1.85;1.10;;;;;;;;;;4537883;28;20037;-61
2021/10/25 11:58:26;;;;;;;1.00;0.80;;;;;;;;;;4519974;28;20034;-61
2021/10/25 12:00:40;;;;;;;1.92;0.98;;;;;;;;;;4535248;28;20063;-61
2021/10/25 12:03:11;;;;;;;1.85;1.10;;;;;;;;;;4537772;28;20029;-61
2021/10/25 12:05:25;;;;;;;2.08;1.30;;;;;;;;;;4536229;28;20048;-61
2021/10/25 12:07:53;;;;;;;1.58;0.85;;;;;;;;;;4536137;28;20072;-61
2021/10/25 12:10:06;;;;;;;1.55;0.90;;;;;;;;;;4519667;28;20116;-61
2021/10/25 12:12:20;;;;;;;2.20;0.85;;;;;;;;;;4537841;28;20051;-61
2021/10/25 12:14:33;;;;;;;1.30;0.90;;;;;;;;;;4535488;28;20055;-61
2021/10/25 12:16:48;;;;;;;1.75;1.00;;;;;;;;;;4518443;28;20026;-61
2021/10/25 12:18:59;;;;;;;1.80;1.05;;;;;;;;;;4537328;28;20033;-61
2021/10/25 12:21:11;;;;;;;1.38;0.93;;;;;;;;;;4519044;28;20452;-61
2021/10/25 12:23:23;;;;;;;2.28;1.17;;;;;;;;;;4537400;28;20033;-61
2021/10/25 12:25:35;;;;;;;1.50;1.00;;;;;;;;;;4518456;28;20052;-61
2021/10/25 12:27:46;;;;;;;2.25;0.93;;;;;;;;;;4537127;28;20107;-61
2021/10/25 12:30:00;;;;;;;1.93;1.07;;;;;;;;;;4535408;28;20040;-61
2021/10/25 12:32:12;;;;;;;1.88;1.00;;;;;;;;;;4535587;28;20260;-61
2021/10/25 12:34:23;;;;;;;1.95;1.00;;;;;;;;;;4519047;28;20033;-60
2021/10/25 12:36:36;;;;;;;1.43;0.90;;;;;;;;;;4517949;28;20030;-60
2021/10/25 12:38:50;;;;;;;1.85;1.05;;;;;;;;;;4535584;28;20537;-61
2021/10/25 12:41:01;;;;;;;1.33;0.80;;;;;;;;;;4536704;28;20025;-61
2021/10/25 12:43:13;;;;;;;1.45;0.95;;;;;;;;;;4519559;28;20030;-60
2021/10/25 12:45:26;;;;;;;;;;;;;;;;;;4537295;28;20044;-61
2021/10/25 12:47:37;;;;;;;1.25;0.90;;;;;;;;;;4518591;28;19905;-61
2021/10/25 12:49:53;;;;;;;1.60;0.80;;;;;;;;;;4517707;28;20034;-62
2021/10/25 12:52:09;;;;;;;1.85;0.90;;;;;;;;;;4537191;28;20033;-61
2021/10/25 12:54:19;;;;;;;1.90;0.80;;;;;;;;;;4517718;28;20065;-61
2021/10/25 12:56:30;;;;;;;1.47;0.80;;;;;;;;;;4536368;28;22073;-61
2021/10/25 12:58:40;;;;;;;1.27;0.90;;;;;;;;;;4535878;28;20053;-61
2021/10/25 13:00:52;;;;;;;1.60;0.80;;;;;;;;;;4537164;28;20116;-61
2021/10/25 13:03:08;;;;;;;0.90;0.80;;;;;;;;;;4536839;28;20025;-61
2021/10/25 13:05:33;;;;;;;1.80;0.98;;;;;;;;;;4537049;28;20071;-61
2021/10/25 13:07:51;;;;;;;1.42;0.82;;;;;;;;;;4518351;28;20030;-61
2021/10/25 13:10:08;;;;;;;1.63;0.80;;;;;;;;;;4518068;28;20017;-61
2021/10/25 13:12:19;;;;;;;0.95;0.80;;;;;;;;;;4517517;28;20068;-61
2021/10/25 13:14:29;;;;;;;1.73;0.98;;;;;;;;;;4536744;28;20021;-61
2021/10/25 13:16:46;;;;;;;1.53;0.70;;;;;;;;;;4536706;28;20034;-61
2021/10/25 13:18:58;;;;;;;1.63;0.80;;;;;;;;;;4536305;28;20025;-61
2021/10/25 13:21:09;;;;;;;1.85;0.70;;;;;;;;;;4536541;28;20033;-61
2021/10/25 13:23:22;;;;;;;2.07;0.70;;;;;;;;;;4518437;28;20051;-61
2021/10/25 13:25:34;;;;;;;1.30;0.73;;;;;;;;;;4517451;28;20049;-60
2021/10/25 13:27:44;;;;;;;;;;;;;;;;;;4536519;28;20151;-61
2021/10/25 13:29:55;;;;;;;1.33;0.90;;;;;;;;;;4536749;28;20018;-61
2021/10/25 13:32:05;;;;;;;1.20;0.93;;;;;;;;;;4517803;28;20486;-61
2021/10/25 13:34:18;;;;;;;1.27;0.80;;;;;;;;;;4536321;28;20093;-61
2021/10/25 13:36:28;;;;;;;1.52;0.80;;;;;;;;;;4535797;28;20349;-61
2021/10/25 13:38:41;;;;;;;1.23;0.73;;;;;;;;;;4534809;28;20151;-61
2021/10/25 13:40:51;;;;;;;1.95;0.90;;;;;;;;;;4535992;28;20543;-61
2021/10/25 13:43:02;;;;;;;1.30;0.80;;;;;;;;;;4517474;28;20132;-61
2021/10/25 13:45:13;;;;;;;0.87;0.60;;;;;;;;;;4517007;28;20057;-61
2021/10/25 13:47:25;;;;;;;0.95;0.68;;;;;;;;;;4535517;28;20100;-60
2021/10/25 13:49:36;;;;;;;1.05;0.73;;;;;;;;;;4536571;28;20025;-61
2021/10/25 13:51:46;;;;;;;1.73;0.90;;;;;;;;;;4534709;28;20045;-61
2021/10/25 13:53:57;;;;;;;0.80;0.73;;;;;;;;;;4534371;28;20052;-61
2021/10/25 13:56:10;;;;;;;0.80;0.70;;;;;;;;;;4535057;28;20062;-61
2021/10/25 13:58:20;;;;;;;1.55;0.80;;;;;;;;;;4536104;28;20580;-61
2021/10/25 14:00:31;;;;;;;1.37;0.87;;;;;;;;;;4536873;28;20560;-61
2021/10/25 14:02:43;;;;;;;2.00;0.80;;;;;;;;;;4518518;28;20119;-61
2021/10/25 14:04:56;;;;;;;1.10;0.77;;;;;;;;;;4535151;28;20142;-61
2021/10/25 14:07:12;;;;;;;1.38;0.75;;;;;;;;;;4517774;28;20022;-61
2021/10/25 14:09:23;;;;;;;2.03;0.90;;;;;;;;;;4518399;28;20045;-61
2021/10/25 14:11:40;;;;;;;1.48;0.88;;;;;;;;;;4536239;28;20504;-61
2021/10/25 14:18:17;;;;;;;1.42;0.90;;;;;;;;;;4534957;28;20032;-61
2021/10/25 14:20:29;;;;;;;1.30;0.83;;;;;;;;;;4518173;28;20273;-61
2021/10/25 14:22:41;;;;;;;1.60;0.90;;;;;;;;;;4517898;28;20108;-61
2021/10/25 14:24:52;;;;;;;;;;;;;;;;;;4535583;28;20124;-61
2021/10/25 14:27:02;;;;;;;1.10;0.80;;;;;;;;;;4535702;28;19919;-61
2021/10/25 14:29:13;;;;;;;1.30;0.87;;;;;;;;;;4495065;28;20026;-61
2021/10/25 14:31:23;;;;;;;1.17;0.83;;;;;;;;;;4516172;28;20060;-61
2021/10/25 14:33:36;;;;;;;2.45;1.10;;;;;;;;;;4516588;28;20025;-61
2021/10/25 14:35:47;;;;;;;0.90;0.80;;;;;;;;;;4535702;28;21021;-61
2021/10/25 14:37:59;;;;;;;1.67;0.90;;;;;;;;;;4531797;28;20547;-61
2021/10/25 14:40:13;;;;;;;1.85;0.85;;;;;;;;;;4517507;28;20025;-61
2021/10/25 14:42:28;;;;;;;1.73;0.88;;;;;;;;;;4518059;28;20021;-61
2021/10/25 14:44:49;;;;;;;1.48;1.00;;;;;;;;;;4535482;28;20559;-61
2021/10/25 14:53:18;;;;;;;1.33;0.82;;;;;;;;;;4535343;28;20026;-61
2021/10/25 14:54:24;;;;;;;1.73;1.00;;;;;;;;;;4534591;28;20033;-61
2021/10/25 14:56:34;;;;;;;1.98;0.80;;;;;;;;;;4517660;28;20034;-61
2021/10/25 14:58:45;;;;;;;2.80;1.40;;;;;;;;;;4539192;28;20025;-61
2021/10/25 15:00:58;;;;;;;2.43;1.17;;;;;;;;;;4521294;28;20041;-61
2021/10/25 15:03:08;;;;;;;2.83;1.30;;;;;;;;;;4537994;28;20053;-61
2021/10/25 15:05:19;;;;;;;1.87;1.00;;;;;;;;;;4538232;28;20128;-61
2021/10/25 15:07:30;;;;;;;2.20;1.38;;;;;;;;;;4519765;28;20085;-61
2021/10/25 15:09:42;;;;;;;1.80;1.10;;;;;;;;;;4537634;28;20132;-61
2021/10/25 15:11:53;;;;;;;2.08;1.10;;;;;;;;;;4538340;28;20025;-61
2021/10/25 15:14:03;;;;;;;;;;;;;;;;;;4520266;28;20034;-61
2021/10/25 15:16:14;;;;;;;1.55;1.25;;;;;;;;;;4539153;28;19909;-61
2021/10/25 15:18:25;;;;;;;2.50;1.37;;;;;;;;;;4494091;28;20101;-60
2021/10/25 15:20:36;;;;;;;2.15;1.50;;;;;;;;;;4537965;28;20037;-61